Time;durP1;ratioP1;P1;durP2;ratioP2;P2;SDS_P1;SDS_P2;PMS_P1;PMS_P2;Temp;Humidity;BMP_temperature;BMP_pressure;BME280_temperature;BME280_humidity;BME280_pressure;Samples;Min_cycle;Max_cycle;Signal;HPM_P1;HPM_P2
2022/10/31 00:00:46;;;;;;;2.58;2.00;;;;;;;22.00;43.14;101014.84;4522202;28;20045;-62
2022/10/31 00:02:57;;;;;;;2.70;1.90;;;;;;;22.02;42.96;101023.09;4522098;28;20586;-62
2022/10/31 00:05:07;;;;;;;2.47;1.83;;;;;;;22.01;42.85;101019.38;4520588;28;20079;-61
2022/10/31 00:07:17;;;;;;;3.50;2.00;;;;;;;22.02;42.69;101023.94;4520220;28;20041;-61
2022/10/31 00:09:28;;;;;;;3.67;1.98;;;;;;;22.00;42.91;101020.59;4520966;28;20029;-62
2022/10/31 00:11:38;;;;;;;3.47;2.25;;;;;;;22.01;42.70;101021.41;4521531;28;20570;-62
2022/10/31 00:13:49;;;;;;;3.45;1.90;;;;;;;22.01;43.29;101022.25;4524137;28;20508;-62
2022/10/31 00:15:59;;;;;;;2.28;1.80;;;;;;;22.01;42.92;101036.63;4522103;28;20050;-62
2022/10/31 00:18:10;;;;;;;2.65;2.20;;;;;;;21.99;43.60;101033.28;4519066;28;20148;-62
2022/10/31 00:20:20;;;;;;;3.17;1.90;;;;;;;22.01;43.10;101038.66;4521578;28;20521;-62
2022/10/31 00:22:31;;;;;;;3.13;2.30;;;;;;;21.99;43.33;101030.41;4521108;28;20498;-61
2022/10/31 00:24:41;;;;;;;3.58;2.00;;;;;;;21.99;43.47;101036.16;4521654;28;20045;-62
2022/10/31 00:26:52;;;;;;;4.63;2.20;;;;;;;21.99;42.83;101035.34;4523684;28;20025;-62
2022/10/31 00:29:05;;;;;;;3.78;2.10;;;;;;;21.99;43.05;101036.16;4537088;28;20042;-61
2022/10/31 00:31:16;;;;;;;2.58;2.10;;;;;;;21.99;43.08;101041.91;4520299;28;20044;-61
2022/10/31 00:33:28;;;;;;;3.65;2.03;;;;;;;22.00;42.86;101042.75;4519793;28;20033;-62
2022/10/31 00:35:39;;;;;;;3.17;2.00;;;;;;;21.99;42.92;101041.09;4536991;28;21470;-62
2022/10/31 00:37:49;;;;;;;2.47;1.90;;;;;;;21.99;43.04;101044.78;4537207;28;20025;-62
2022/10/31 00:40:00;;;;;;;2.80;1.73;;;;;;;21.99;43.16;101047.66;4522092;28;20056;-62
2022/10/31 00:42:11;;;;;;;2.42;1.98;;;;;;;21.98;43.26;101037.38;4522096;28;20474;-62
2022/10/31 00:44:21;;;;;;;4.05;2.20;;;;;;;21.99;43.49;101047.66;4520373;28;20586;-62
2022/10/31 00:46:31;;;;;;;2.53;1.83;;;;;;;21.98;43.53;101051.75;4522102;28;21178;-62
2022/10/31 00:48:42;;;;;;;3.25;2.20;;;;;;;21.98;43.34;101050.91;4518504;28;20516;-62
2022/10/31 00:50:52;;;;;;;3.58;2.17;;;;;;;21.98;43.68;101048.88;4521837;28;20501;-62
2022/10/31 00:53:03;;;;;;;2.95;2.22;;;;;;;21.97;43.78;101043.50;4521139;28;20105;-62
2022/10/31 00:55:14;;;;;;;2.90;1.90;;;;;;;21.98;43.49;101045.16;4518701;28;20037;-62
2022/10/31 00:57:25;;;;;;;2.90;1.85;;;;;;;21.97;43.43;101043.50;4520952;28;20033;-62
2022/10/31 00:59:35;;;;;;;2.83;2.08;;;;;;;21.96;43.03;101036.91;4521021;28;20587;-62
2022/10/31 01:01:45;;;;;;;3.65;2.08;;;;;;;21.97;43.40;101038.59;4521368;28;20053;-62
2022/10/31 01:03:56;;;;;;;3.30;1.90;;;;;;;21.97;43.05;101044.34;4522323;28;20088;-62
2022/10/31 01:06:12;;;;;;;3.92;2.33;;;;;;;21.96;42.93;101048.38;4522682;28;20036;-62
2022/10/31 01:08:22;;;;;;;4.47;2.10;;;;;;;21.95;43.35;101055.34;4524721;28;20108;-62
2022/10/31 01:10:33;;;;;;;3.10;1.90;;;;;;;21.97;43.57;101047.22;4521882;28;20164;-62
2022/10/31 01:12:46;;;;;;;2.53;1.65;;;;;;;21.97;43.32;101050.09;4522518;28;20072;-62
2022/10/31 01:14:57;;;;;;;2.72;2.10;;;;;;;21.96;43.48;101048.38;4521950;28;20029;-62
2022/10/31 01:17:08;;;;;;;2.70;2.10;;;;;;;21.97;43.76;101055.84;4535911;28;20417;-62
2022/10/31 01:19:19;;;;;;;3.03;1.98;;;;;;;21.97;43.84;101046.38;4519195;28;20033;-62
2022/10/31 01:21:30;;;;;;;2.45;1.77;;;;;;;21.96;43.89;101054.13;4537121;28;20124;-62
2022/10/31 01:23:42;;;;;;;2.50;2.10;;;;;;;21.97;43.95;101057.84;4538849;28;20119;-62
2022/10/31 01:26:12;;;;;;;2.30;1.75;;;;;;;21.96;44.05;101054.13;4521976;28;20069;-62
2022/10/31 01:28:24;;;;;;;2.58;1.85;;;;;;;21.96;44.15;101053.31;4538796;28;20871;-62
2022/10/31 01:30:34;;;;;;;2.92;1.90;;;;;;;21.96;44.24;101053.31;4521420;28;20129;-62
2022/10/31 01:32:44;;;;;;;3.63;2.15;;;;;;;21.96;44.69;101053.31;4506064;28;20042;-62
2022/10/31 01:34:55;;;;;;;3.05;2.00;;;;;;;21.96;44.97;101053.31;4539653;28;20073;-63
2022/10/31 01:37:05;;;;;;;2.83;2.05;;;;;;;21.95;45.06;101051.63;4523798;28;20037;-62
2022/10/31 01:39:17;;;;;;;3.03;1.85;;;;;;;21.95;45.12;101052.47;4535721;28;20025;-62
2022/10/31 01:41:30;;;;;;;2.80;2.10;;;;;;;21.95;45.26;101052.47;4539652;28;20249;-62
2022/10/31 01:43:54;;;;;;;4.07;2.05;;;;;;;21.95;45.28;101043.84;4522403;28;20029;-62
2022/10/31 01:46:05;;;;;;;3.20;1.98;;;;;;;21.94;45.21;101038.47;4523252;28;20042;-62
2022/10/31 01:48:19;;;;;;;3.00;2.08;;;;;;;21.94;45.02;101047.94;4522599;28;20554;-61
2022/10/31 01:50:37;;;;;;;2.63;1.95;;;;;;;21.92;45.13;101035.97;4523443;28;20835;-61
2022/10/31 01:52:51;;;;;;;2.70;1.90;;;;;;;21.94;45.03;101033.56;4523230;28;20045;-63
2022/10/31 01:55:10;;;;;;;2.90;1.85;;;;;;;21.92;45.18;101024.47;4522923;28;20029;-61
2022/10/31 01:57:22;;;;;;;2.38;1.67;;;;;;;21.94;44.90;101032.72;4540596;28;20041;-62
2022/10/31 01:59:40;;;;;;;3.13;1.80;;;;;;;21.93;44.93;101022.41;4519306;28;20354;-61
2022/10/31 02:01:51;;;;;;;2.33;1.77;;;;;;;21.93;44.87;101031.88;4523726;28;20022;-61
2022/10/31 02:04:02;;;;;;;2.67;1.90;;;;;;;21.92;45.30;101024.47;4536105;28;20029;-62
2022/10/31 02:06:38;;;;;;;2.95;1.90;;;;;;;21.92;45.26;101024.47;4523563;28;20037;-62
2022/10/31 02:08:48;;;;;;;2.80;1.70;;;;;;;21.93;44.87;101031.88;4537254;28;20044;-61
2022/10/31 02:11:01;;;;;;;3.08;1.73;;;;;;;21.92;44.63;101041.72;4521127;28;20087;-62
2022/10/31 02:13:12;;;;;;;2.97;2.15;;;;;;;21.92;44.67;101038.84;4537724;28;20827;-62
2022/10/31 02:15:30;;;;;;;2.53;1.80;;;;;;;21.92;44.92;101033.09;4522962;28;20463;-61
2022/10/31 02:17:41;;;;;;;2.85;1.83;;;;;;;21.91;44.57;101033.47;4518227;28;20044;-62
2022/10/31 02:19:57;;;;;;;1.92;1.70;;;;;;;21.93;44.87;101028.16;4524183;28;20532;-62
2022/10/31 02:22:22;;;;;;;2.83;1.83;;;;;;;21.91;44.57;101025.66;4523660;28;20036;-61
2022/10/31 02:25:03;;;;;;;2.67;1.90;;;;;;;21.90;44.97;101026.03;4520860;28;20575;-62
2022/10/31 02:27:28;;;;;;;2.65;1.63;;;;;;;21.89;44.82;101015.75;4538971;28;20059;-62
2022/10/31 02:29:56;;;;;;;2.40;1.83;;;;;;;21.91;44.84;101019.91;4538111;28;20035;-62
2022/10/31 02:32:13;;;;;;;2.78;1.85;;;;;;;21.92;44.94;101023.63;4521085;28;20033;-61
2022/10/31 02:34:36;;;;;;;2.95;2.05;;;;;;;21.91;45.27;101033.47;4537594;28;20033;-62
2022/10/31 02:36:57;;;;;;;2.53;1.88;;;;;;;21.89;45.20;101028.09;4535383;28;20045;-62
2022/10/31 02:39:24;;;;;;;2.47;1.75;;;;;;;21.90;44.85;101038.38;4539708;28;20072;-62
2022/10/31 02:41:45;;;;;;;2.33;1.75;;;;;;;21.90;44.89;101044.09;4538137;28;20037;-62
2022/10/31 02:44:14;;;;;;;2.40;1.90;;;;;;;21.89;45.27;101051.06;4520573;28;20033;-62
2022/10/31 02:46:37;;;;;;;2.65;1.98;;;;;;;21.90;45.28;101058.47;4539548;28;20033;-62
2022/10/31 02:48:55;;;;;;;3.13;1.90;;;;;;;21.89;45.64;101058.84;4522024;28;20830;-62
2022/10/31 02:51:06;;;;;;;2.80;1.80;;;;;;;21.88;45.41;101058.00;4522142;28;20643;-62
2022/10/31 02:53:16;;;;;;;3.45;2.00;;;;;;;21.89;45.41;101064.59;4518991;28;20037;-62
2022/10/31 02:55:27;;;;;;;3.65;2.10;;;;;;;21.89;45.75;101065.44;4522719;28;20041;-61
2022/10/31 02:57:42;;;;;;;3.17;2.13;;;;;;;21.80;46.21;101047.50;4520332;28;20049;-61
2022/10/31 02:59:57;;;;;;;2.88;2.15;;;;;;;21.89;45.80;101062.56;4537048;28;20083;-61
2022/10/31 03:02:29;;;;;;;2.35;1.80;;;;;;;21.89;46.16;101058.84;4538089;28;20033;-61
2022/10/31 03:04:42;;;;;;;3.03;2.20;;;;;;;21.88;45.91;101049.38;4517825;28;20057;-62
2022/10/31 03:07:06;;;;;;;3.25;2.00;;;;;;;21.88;46.19;101046.50;4537087;28;20075;-62
2022/10/31 03:09:26;;;;;;;2.65;2.03;;;;;;;21.88;46.32;101042.81;4520880;28;20121;-62
2022/10/31 03:11:50;;;;;;;2.78;1.90;;;;;;;21.86;46.01;101046.06;4537059;28;20039;-62
2022/10/31 03:14:10;;;;;;;4.00;2.25;;;;;;;21.88;46.32;101043.63;4536887;28;20033;-62
2022/10/31 03:16:53;;;;;;;2.78;2.00;;;;;;;21.87;45.80;101044.00;4534306;28;20094;-62
2022/10/31 03:19:09;;;;;;;2.55;2.00;;;;;;;21.87;46.14;101044.84;4519615;28;20037;-62
2022/10/31 03:21:43;;;;;;;3.67;2.10;;;;;;;21.79;46.07;101031.47;4519591;28;20034;-62
2022/10/31 03:23:56;;;;;;;2.70;1.85;;;;;;;21.87;46.28;101041.97;4537877;28;20087;-62
2022/10/31 03:26:09;;;;;;;3.03;2.17;;;;;;;21.86;46.08;101031.69;4520717;28;20073;-61
2022/10/31 03:28:26;;;;;;;2.63;2.00;;;;;;;21.86;45.96;101025.94;4517096;28;20029;-62
2022/10/31 03:30:40;;;;;;;3.55;2.15;;;;;;;21.87;45.66;101035.38;4519608;28;20073;-61
2022/10/31 03:32:54;;;;;;;2.83;2.10;;;;;;;21.85;45.76;101035.75;4519985;28;20588;-62
2022/10/31 03:35:09;;;;;;;2.53;1.90;;;;;;;21.85;45.55;101032.88;4521364;28;20060;-61
2022/10/31 03:37:22;;;;;;;2.67;2.00;;;;;;;21.85;45.64;101032.88;4537793;28;20705;-62
2022/10/31 03:39:34;;;;;;;3.50;2.30;;;;;;;21.84;45.80;101034.09;4522236;28;20041;-62
2022/10/31 03:42:09;;;;;;;3.03;1.90;;;;;;;21.86;45.80;101034.56;4519777;28;20037;-62
2022/10/31 03:44:22;;;;;;;2.40;1.80;;;;;;;21.85;45.71;101032.88;4536847;28;20067;-62
2022/10/31 03:46:42;;;;;;;2.60;1.88;;;;;;;21.86;45.25;101037.44;4521044;28;20033;-62
2022/10/31 03:48:54;;;;;;;2.60;2.10;;;;;;;21.86;45.28;101039.47;4521421;28;20030;-61
2022/10/31 03:51:14;;;;;;;3.80;2.10;;;;;;;21.85;44.89;101043.56;4520802;28;20025;-62
2022/10/31 03:53:56;;;;;;;2.80;2.25;;;;;;;21.84;44.88;101051.31;4521676;28;20120;-62
2022/10/31 03:56:13;;;;;;;3.67;2.17;;;;;;;21.85;44.71;101050.13;4533716;28;20635;-62
2022/10/31 03:58:50;;;;;;;;;;;;;;;21.85;44.29;101046.44;4521242;28;20041;-62
2022/10/31 04:01:04;;;;;;;2.60;2.10;;;;;;;21.84;44.48;101057.06;4519422;28;19963;-62
2022/10/31 04:03:20;;;;;;;3.20;1.90;;;;;;;21.84;44.53;101056.22;4520636;28;20573;-62
2022/10/31 04:05:35;;;;;;;2.33;2.13;;;;;;;21.83;44.30;101061.16;4517811;28;20036;-62
2022/10/31 04:07:51;;;;;;;4.15;2.50;;;;;;;21.83;44.72;101061.16;4536465;28;20122;-62
2022/10/31 04:10:07;;;;;;;2.40;2.08;;;;;;;21.84;44.37;101061.97;4519911;28;20038;-62
2022/10/31 04:12:18;;;;;;;3.75;2.10;;;;;;;21.83;44.21;101058.28;4537260;28;20041;-62
2022/10/31 04:14:32;;;;;;;4.05;2.60;;;;;;;21.83;44.63;101061.16;4522796;28;20592;-62
2022/10/31 04:16:44;;;;;;;3.53;2.35;;;;;;;21.82;45.01;101061.50;4520696;28;20037;-62
2022/10/31 04:18:55;;;;;;;4.53;2.20;;;;;;;21.81;45.01;101057.81;4516791;28;20719;-61
2022/10/31 04:21:07;;;;;;;3.88;2.78;;;;;;;21.82;44.83;101056.59;4518570;28;20144;-62
2022/10/31 04:23:25;;;;;;;2.45;1.98;;;;;;;21.82;44.97;101053.72;4537231;28;20325;-64
2022/10/31 04:25:35;;;;;;;3.30;2.33;;;;;;;21.82;44.90;101065.22;4534539;28;20025;-61
2022/10/31 04:27:46;;;;;;;3.20;2.20;;;;;;;21.80;45.06;101061.88;4502642;28;20026;-62
2022/10/31 04:29:56;;;;;;;2.85;2.35;;;;;;;21.82;44.92;101059.47;4536681;28;20135;-62
2022/10/31 04:32:06;;;;;;;3.13;2.35;;;;;;;21.81;45.33;101060.69;4521222;28;20068;-61
2022/10/31 04:34:17;;;;;;;3.35;2.63;;;;;;;21.81;45.11;101051.22;4522964;28;20109;-62
2022/10/31 04:36:27;;;;;;;4.22;2.17;;;;;;;21.81;44.96;101056.97;4523284;28;20046;-62
2022/10/31 04:38:38;;;;;;;3.38;2.42;;;;;;;21.82;44.98;101062.34;4524750;28;20747;-62
2022/10/31 04:40:57;;;;;;;3.70;2.78;;;;;;;21.80;44.96;101056.13;4540566;28;20036;-62
2022/10/31 04:43:25;;;;;;;3.55;2.58;;;;;;;21.77;45.31;101056.84;4525524;28;20049;-61
2022/10/31 04:45:37;;;;;;;3.30;2.05;;;;;;;21.80;45.22;101059.00;4521738;28;20087;-62
2022/10/31 04:47:47;;;;;;;2.72;1.77;;;;;;;21.81;44.97;101062.72;4521245;28;20203;-62
2022/10/31 04:49:58;;;;;;;4.45;2.30;;;;;;;21.80;44.57;101055.31;4540913;28;20040;-62
2022/10/31 04:52:08;;;;;;;2.97;2.22;;;;;;;21.79;45.11;101054.44;4522921;28;20045;-62
2022/10/31 04:54:19;;;;;;;4.78;2.78;;;;;;;21.80;44.83;101058.16;4540083;28;20406;-62
2022/10/31 04:56:47;;;;;;;3.00;2.30;;;;;;;21.79;44.92;101051.59;4524358;28;20085;-62
2022/10/31 04:59:04;;;;;;;2.93;2.33;;;;;;;21.79;44.36;101048.72;4522504;28;20161;-62
2022/10/31 05:01:26;;;;;;;3.22;2.28;;;;;;;21.78;44.11;101046.19;4522383;28;20040;-62
2022/10/31 05:03:36;;;;;;;2.75;2.13;;;;;;;21.79;44.17;101048.72;4522876;28;20043;-62
2022/10/31 05:05:47;;;;;;;3.33;2.30;;;;;;;21.78;43.95;101047.03;4521683;28;20099;-62
2022/10/31 05:07:57;;;;;;;3.63;2.25;;;;;;;21.79;43.78;101048.72;4522179;28;20033;-62
2022/10/31 05:10:11;;;;;;;3.45;2.42;;;;;;;21.79;43.92;101051.59;4523537;28;20088;-62
2022/10/31 05:12:22;;;;;;;4.00;2.38;;;;;;;21.78;43.79;101047.03;4540414;28;20622;-62
2022/10/31 05:14:55;;;;;;;3.35;2.10;;;;;;;21.79;44.10;101048.72;4520350;28;21082;-61
2022/10/31 05:17:24;;;;;;;2.35;2.03;;;;;;;21.78;43.97;101038.44;4524829;28;20053;-62
2022/10/31 05:20:01;;;;;;;3.03;2.13;;;;;;;21.78;44.44;101035.56;4506321;28;20528;-62
2022/10/31 05:22:29;;;;;;;3.00;2.40;;;;;;;21.77;44.35;101030.97;4522229;28;20588;-62
2022/10/31 05:24:39;;;;;;;3.80;2.35;;;;;;;21.77;44.58;101028.13;4540327;28;20429;-61
2022/10/31 05:26:50;;;;;;;4.07;2.90;;;;;;;21.77;44.81;101033.84;4523815;28;20033;-61
2022/10/31 05:29:01;;;;;;;3.05;2.42;;;;;;;21.77;44.79;101038.78;4539099;28;20032;-62
2022/10/31 05:31:12;;;;;;;3.60;2.47;;;;;;;21.76;44.52;101037.09;4523408;28;20980;-62
2022/10/31 05:33:22;;;;;;;3.30;2.40;;;;;;;21.77;44.84;101033.84;4523328;28;20109;-62
2022/10/31 05:35:51;;;;;;;3.55;2.40;;;;;;;21.76;45.35;101025.59;4523541;28;20493;-62
2022/10/31 05:38:16;;;;;;;3.25;2.42;;;;;;;21.76;45.21;101037.94;4522273;28;20046;-62
2022/10/31 05:40:27;;;;;;;3.60;2.63;;;;;;;21.76;45.48;101035.06;4523691;28;20605;-62
2022/10/31 05:42:39;;;;;;;2.47;2.20;;;;;;;21.75;45.26;101033.41;4522263;28;20465;-62
2022/10/31 05:44:49;;;;;;;3.10;2.30;;;;;;;21.75;45.29;101019.03;4519524;28;20116;-62
2022/10/31 05:47:26;;;;;;;3.85;2.50;;;;;;;21.73;45.31;101017.69;4514389;28;20154;-62
2022/10/31 05:49:39;;;;;;;2.90;2.30;;;;;;;21.75;45.01;101016.16;4523676;28;20140;-61
2022/10/31 05:52:16;;;;;;;4.13;2.38;;;;;;;21.73;45.20;101021.41;4535759;28;20084;-62
2022/10/31 05:54:35;;;;;;;4.78;2.50;;;;;;;21.75;45.06;101021.91;4539321;28;20028;-62
2022/10/31 05:56:45;;;;;;;4.03;2.50;;;;;;;21.75;45.35;101021.91;4522548;28;20045;-62
2022/10/31 05:58:56;;;;;;;3.65;2.60;;;;;;;21.74;45.17;101020.19;4519641;28;20041;-62
2022/10/31 06:01:06;;;;;;;3.17;2.47;;;;;;;21.74;44.80;101023.06;4522513;28;20537;-63
2022/10/31 06:03:17;;;;;;;3.63;2.30;;;;;;;21.75;44.77;101023.91;4504745;28;20123;-62
2022/10/31 06:05:32;;;;;;;3.60;2.70;;;;;;;21.74;44.37;101023.06;4538987;28;20671;-62
2022/10/31 06:07:42;;;;;;;3.90;2.70;;;;;;;21.75;44.37;101023.91;4539451;28;20119;-62
2022/10/31 06:09:53;;;;;;;3.25;2.13;;;;;;;21.74;43.93;101013.63;4540052;28;20029;-62
2022/10/31 06:12:05;;;;;;;4.63;2.60;;;;;;;21.70;43.82;101019.25;4519588;28;20576;-62
2022/10/31 06:14:34;;;;;;;3.78;2.65;;;;;;;21.74;43.71;101031.69;4522833;28;20049;-62
2022/10/31 06:16:44;;;;;;;3.60;2.63;;;;;;;21.73;43.67;101027.16;4522588;28;20513;-61
2022/10/31 06:19:24;;;;;;;3.60;2.70;;;;;;;21.73;44.06;101026.31;4520420;28;20380;-62
2022/10/31 06:21:35;;;;;;;3.47;2.50;;;;;;;21.72;43.75;101025.47;4522996;28;20071;-62
2022/10/31 06:23:45;;;;;;;2.90;2.20;;;;;;;21.72;44.37;101025.47;4521679;28;20650;-62
2022/10/31 06:26:09;;;;;;;3.90;2.58;;;;;;;21.72;44.16;101021.78;4538056;28;20036;-63
2022/10/31 06:28:19;;;;;;;3.15;2.50;;;;;;;21.71;44.35;101029.53;4536821;28;20068;-63
2022/10/31 06:30:37;;;;;;;4.20;2.60;;;;;;;21.72;44.58;101024.66;4537533;28;20025;-62
2022/10/31 06:32:49;;;;;;;4.00;2.53;;;;;;;21.72;44.66;101031.22;4537671;28;20488;-62
2022/10/31 06:34:59;;;;;;;3.97;2.28;;;;;;;21.72;44.54;101033.25;4517854;28;20037;-62
2022/10/31 06:37:11;;;;;;;4.22;2.47;;;;;;;21.72;44.54;101042.69;4519788;28;20049;-64
2022/10/31 06:39:25;;;;;;;3.78;2.42;;;;;;;21.71;43.99;101038.16;4535359;28;20041;-63
2022/10/31 06:41:36;;;;;;;3.35;2.33;;;;;;;21.70;44.38;101039.38;4521469;28;20216;-62
2022/10/31 06:43:47;;;;;;;4.25;2.85;;;;;;;21.70;44.19;101035.66;4538782;28;20175;-62
2022/10/31 06:46:19;;;;;;;4.13;2.40;;;;;;;21.71;44.69;101040.19;4519817;28;20521;-63
2022/10/31 06:48:42;;;;;;;3.67;2.30;;;;;;;21.72;44.77;101044.75;4520451;28;20065;-63
2022/10/31 06:51:11;;;;;;;3.15;2.22;;;;;;;21.72;44.84;101036.94;4520150;28;20580;-62
2022/10/31 06:53:21;;;;;;;3.60;2.55;;;;;;;21.71;45.66;101046.78;4521439;28;20041;-62
2022/10/31 06:55:32;;;;;;;2.92;2.30;;;;;;;21.70;45.50;101048.00;4520785;28;20029;-63
2022/10/31 06:57:49;;;;;;;4.80;2.47;;;;;;;21.71;45.45;101051.69;4519909;28;20045;-62
2022/10/31 06:59:59;;;;;;;3.65;2.50;;;;;;;21.71;45.42;101051.69;4534200;28;20040;-63
2022/10/31 07:02:31;;;;;;;3.20;2.40;;;;;;;21.68;45.24;101041.78;4522226;28;20961;-63
2022/10/31 07:04:42;;;;;;;3.47;2.50;;;;;;;21.57;45.19;101026.25;4537966;28;20106;-65
2022/10/31 07:06:56;;;;;;;4.35;2.58;;;;;;;21.70;45.25;101050.03;4505836;28;20093;-62
2022/10/31 07:09:06;;;;;;;3.40;2.38;;;;;;;21.69;45.29;101054.91;4522724;28;20060;-62
2022/10/31 07:11:17;;;;;;;3.63;2.53;;;;;;;21.69;45.89;101054.91;4523143;28;20120;-63
2022/10/31 07:13:27;;;;;;;4.45;2.88;;;;;;;21.68;46.29;101056.13;4521525;28;20075;-62
2022/10/31 07:15:46;;;;;;;4.20;2.55;;;;;;;21.69;45.89;101051.22;4505964;28;20033;-63
2022/10/31 07:18:04;;;;;;;4.60;2.67;;;;;;;21.68;45.80;101047.50;4521114;28;20041;-62
2022/10/31 07:20:15;;;;;;;4.40;2.80;;;;;;;21.69;45.67;101042.63;4521156;28;20100;-62
2022/10/31 07:22:35;;;;;;;5.53;2.88;;;;;;;21.67;45.89;101045.00;4520318;28;20091;-63
2022/10/31 07:24:47;;;;;;;3.22;2.58;;;;;;;21.67;46.10;101048.72;4519532;28;20095;-66
2022/10/31 07:26:58;;;;;;;3.83;2.60;;;;;;;21.68;46.24;101038.91;4537346;28;20037;-63
2022/10/31 07:29:08;;;;;;;5.07;3.15;;;;;;;21.67;46.49;101034.38;4520625;28;20029;-64
2022/10/31 07:31:19;;;;;;;3.75;2.67;;;;;;;21.67;46.36;101037.25;4519894;28;20033;-65
2022/10/31 07:33:29;;;;;;;4.55;3.03;;;;;;;21.66;46.56;101038.41;4521358;28;20061;-63
2022/10/31 07:36:06;;;;;;;4.07;2.70;;;;;;;21.68;46.50;101036.03;4511473;28;20581;-62
2022/10/31 07:38:17;;;;;;;4.15;2.83;;;;;;;21.67;46.71;101033.50;4534721;28;20039;-62
2022/10/31 07:40:28;;;;;;;4.25;3.00;;;;;;;21.67;46.87;101034.38;4537579;28;20583;-63
2022/10/31 07:42:42;;;;;;;4.60;2.90;;;;;;;21.67;46.92;101045.84;4535514;28;20123;-63
2022/10/31 07:45:13;;;;;;;4.20;2.92;;;;;;;21.65;46.99;101031.00;4520904;28;20103;-62
2022/10/31 07:47:48;;;;;;;4.10;2.90;;;;;;;21.68;47.38;101038.91;4522491;28;20164;-62
2022/10/31 07:50:33;;;;;;;4.90;3.40;;;;;;;21.65;47.47;101031.00;4517876;28;20648;-63
2022/10/31 07:53:06;;;;;;;3.65;3.03;;;;;;;21.65;47.47;101033.88;4521438;28;21398;-63
2022/10/31 07:55:33;;;;;;;5.82;3.55;;;;;;;21.67;47.37;101050.75;4517338;28;20827;-63
2022/10/31 07:57:43;;;;;;;3.97;2.60;;;;;;;21.67;48.04;101050.75;4534437;28;20048;-63
2022/10/31 07:59:54;;;;;;;4.60;3.22;;;;;;;21.63;48.64;101026.81;4519748;28;20077;-63
2022/10/31 08:02:04;;;;;;;4.40;3.00;;;;;;;21.71;48.32;101046.78;4521333;28;20042;-63
2022/10/31 08:04:15;;;;;;;4.82;3.17;;;;;;;21.71;48.29;101043.06;4521862;28;20482;-63
2022/10/31 08:06:44;;;;;;;4.93;3.30;;;;;;;21.71;48.55;101045.94;4530568;28;20352;-62
2022/10/31 08:09:03;;;;;;;4.88;3.28;;;;;;;21.70;48.63;101050.88;4536582;28;20037;-62
2022/10/31 08:11:15;;;;;;;4.95;3.70;;;;;;;21.70;48.33;101050.88;4536465;28;20136;-62
2022/10/31 08:13:27;;;;;;;4.78;3.17;;;;;;;21.71;48.50;101046.78;4533452;28;20025;-63
2022/10/31 08:15:39;;;;;;;3.85;2.88;;;;;;;21.71;48.61;101049.66;4521316;28;20037;-62
2022/10/31 08:17:51;;;;;;;4.47;3.20;;;;;;;21.70;48.68;101039.38;4519623;28;20076;-63
2022/10/31 08:20:03;;;;;;;3.55;2.97;;;;;;;21.70;48.61;101039.38;4519911;28;20033;-62
2022/10/31 08:22:20;;;;;;;4.55;3.25;;;;;;;21.70;48.56;101038.53;4520672;28;20036;-63
2022/10/31 08:24:32;;;;;;;4.50;3.28;;;;;;;21.70;48.52;101045.13;4521029;28;20548;-62
2022/10/31 08:26:43;;;;;;;5.03;3.63;;;;;;;21.69;48.48;101043.44;4521859;28;20064;-62
2022/10/31 08:28:54;;;;;;;6.63;4.00;;;;;;;21.69;48.51;101040.56;4517654;28;20035;-62
2022/10/31 08:31:06;;;;;;;5.15;3.78;;;;;;;21.69;48.54;101043.44;4522008;28;20556;-62
2022/10/31 08:33:25;;;;;;;6.28;3.80;;;;;;;21.70;48.97;101038.53;4519431;28;20080;-62
2022/10/31 08:35:54;;;;;;;5.07;3.75;;;;;;;21.69;49.49;101043.44;4521710;28;20046;-62
2022/10/31 08:38:40;;;;;;;5.20;3.88;;;;;;;21.69;49.49;101029.06;4516515;28;20144;-62
2022/10/31 08:40:53;;;;;;;5.63;3.75;;;;;;;21.69;49.31;101023.31;4513883;28;20036;-62
2022/10/31 08:43:08;;;;;;;6.07;3.75;;;;;;;21.69;49.55;101034.81;4521828;28;20042;-62
2022/10/31 08:45:19;;;;;;;5.00;3.83;;;;;;;21.69;50.18;101020.44;4516437;28;20036;-62
2022/10/31 08:47:29;;;;;;;4.90;3.58;;;;;;;21.69;50.00;101011.81;4520879;28;20399;-62
2022/10/31 08:49:40;;;;;;;5.57;4.00;;;;;;;21.70;50.34;101021.28;4519703;28;20033;-63
2022/10/31 08:51:51;;;;;;;7.15;3.88;;;;;;;21.69;50.46;101019.63;4517029;28;20034;-62
2022/10/31 08:54:04;;;;;;;5.25;4.20;;;;;;;21.61;50.57;100998.44;4520053;28;20120;-63
2022/10/31 08:56:17;;;;;;;6.57;4.30;;;;;;;21.69;50.79;101008.97;4521595;28;20611;-62
2022/10/31 08:58:28;;;;;;;5.82;4.00;;;;;;;21.68;50.62;101010.16;4536166;28;20037;-63
2022/10/31 09:00:44;;;;;;;5.78;3.65;;;;;;;21.69;50.90;101017.56;4537378;28;20056;-63
2022/10/31 09:03:10;;;;;;;5.43;3.78;;;;;;;21.68;50.97;101007.28;4534696;28;20073;-63
2022/10/31 09:05:20;;;;;;;6.10;4.20;;;;;;;21.68;50.81;101013.03;4534185;28;20029;-62
2022/10/31 09:07:30;;;;;;;5.75;4.28;;;;;;;21.69;50.40;101006.09;4520513;28;20041;-63
2022/10/31 09:09:42;;;;;;;6.32;4.40;;;;;;;21.66;50.82;101012.56;4519854;28;20037;-62
2022/10/31 09:11:53;;;;;;;6.88;4.18;;;;;;;21.69;50.89;101013.88;4519957;28;20034;-63
2022/10/31 09:14:22;;;;;;;6.15;4.57;;;;;;;21.69;50.67;101005.25;4522204;28;20029;-62
2022/10/31 09:17:03;;;;;;;5.85;4.35;;;;;;;21.68;50.95;101012.19;4519788;28;20033;-62
2022/10/31 09:19:31;;;;;;;5.60;4.28;;;;;;;21.69;51.05;101014.69;4521736;28;20068;-62
2022/10/31 09:21:41;;;;;;;5.65;4.15;;;;;;;21.68;51.03;101001.56;4523856;28;20052;-62
2022/10/31 09:23:53;;;;;;;6.63;4.72;;;;;;;21.69;51.32;101000.34;4524122;28;20100;-62
2022/10/31 09:26:04;;;;;;;6.38;4.35;;;;;;;21.67;51.40;100999.88;4524911;28;20021;-62
2022/10/31 09:28:17;;;;;;;7.10;4.40;;;;;;;21.68;51.91;100990.06;4524680;28;20037;-62
2022/10/31 09:30:32;;;;;;;5.65;4.28;;;;;;;21.68;52.19;101001.56;4538412;28;20673;-62
2022/10/31 09:32:43;;;;;;;6.85;4.65;;;;;;;21.68;51.94;100990.06;4505950;28;20102;-61
2022/10/31 09:34:54;;;;;;;6.90;4.43;;;;;;;21.69;51.94;101002.41;4521851;28;20497;-62
2022/10/31 09:37:04;;;;;;;6.22;4.60;;;;;;;21.67;52.29;100999.88;4523396;28;20041;-62
2022/10/31 09:39:18;;;;;;;6.40;4.68;;;;;;;21.68;52.15;100998.69;4506667;28;20034;-62
2022/10/31 09:41:42;;;;;;;7.13;5.05;;;;;;;21.69;52.73;100997.47;4539641;28;20033;-62
2022/10/31 09:44:32;;;;;;;7.10;4.97;;;;;;;21.68;52.14;101000.69;4540050;28;20091;-62
2022/10/31 09:47:00;;;;;;;6.30;4.82;;;;;;;21.67;52.11;101005.63;4537202;28;20112;-62
2022/10/31 09:49:24;;;;;;;6.22;4.57;;;;;;;21.67;52.33;100997.00;4540764;28;20028;-62
2022/10/31 09:51:42;;;;;;;7.53;4.90;;;;;;;21.68;52.44;101007.28;4519157;28;20238;-62
2022/10/31 09:54:12;;;;;;;7.43;4.97;;;;;;;21.68;52.42;101004.41;4522573;28;20037;-62
2022/10/31 09:56:25;;;;;;;8.63;5.03;;;;;;;21.69;52.55;101008.13;4521386;28;20053;-62
2022/10/31 09:58:43;;;;;;;7.45;4.50;;;;;;;21.68;53.09;100995.81;4539686;28;20315;-62
2022/10/31 10:00:58;;;;;;;7.93;4.93;;;;;;;21.68;52.78;101001.56;4520907;28;20083;-62
2022/10/31 10:03:27;;;;;;;7.05;4.88;;;;;;;21.68;52.99;100995.81;4522960;28;20077;-63
2022/10/31 10:05:51;;;;;;;6.68;4.90;;;;;;;21.68;52.87;100994.97;4537908;28;20048;-62
2022/10/31 10:08:17;;;;;;;8.57;5.10;;;;;;;21.67;53.59;100991.28;4537939;28;20041;-62
2022/10/31 10:10:54;;;;;;;8.00;5.22;;;;;;;21.67;53.76;100988.41;4524730;28;20116;-62
2022/10/31 10:13:21;;;;;;;7.80;4.95;;;;;;;21.68;53.78;100990.06;4519368;28;20137;-62
2022/10/31 10:15:44;;;;;;;8.83;5.13;;;;;;;21.68;53.53;100992.94;4525897;28;20051;-62
2022/10/31 10:18:07;;;;;;;8.07;5.75;;;;;;;21.68;53.84;100989.22;4522466;28;20050;-62
2022/10/31 10:20:34;;;;;;;7.97;5.40;;;;;;;21.67;53.98;100982.66;4524284;28;20041;-62
2022/10/31 10:23:03;;;;;;;;;;;;;;;21.68;53.99;100984.31;4524874;28;20025;-62
2022/10/31 10:25:15;;;;;;;;;;;;;;;21.67;54.38;100982.66;4524008;28;20408;-62
2022/10/31 10:27:44;;;;;;;7.53;5.28;;;;;;;21.67;54.23;100971.16;4524584;28;20539;-62
2022/10/31 10:30:03;;;;;;;9.30;5.40;;;;;;;21.68;54.72;100964.19;4523358;28;20029;-62
2022/10/31 10:32:26;;;;;;;8.65;5.53;;;;;;;21.65;54.54;100947.69;4522776;28;20071;-62
2022/10/31 10:35:07;;;;;;;8.02;5.85;;;;;;;21.68;55.16;100949.00;4522810;28;20037;-62
2022/10/31 10:37:24;;;;;;;8.45;5.47;;;;;;;21.67;55.09;100948.19;4522580;28;20049;-62